Time;durP1;ratioP1;P1;durP2;ratioP2;P2;SDS_P1;SDS_P2;PMS_P1;PMS_P2;Temp;Humidity;BMP_temperature;BMP_pressure;BME280_temperature;BME280_humidity;BME280_pressure;Samples;Min_cycle;Max_cycle;Signal;HPM_P1;HPM_P2
2021/05/02 00:01:10;;;;;;;1.17;0.10;;;13.50;65.50;;;;;;5007924;28;20097;-82
2021/05/02 00:03:37;;;;;;;0.47;0.20;;;13.40;65.70;;;;;;5012051;28;20106;-82
2021/05/02 00:06:04;;;;;;;1.07;0.10;;;13.40;66.10;;;;;;5011134;28;20057;-82
2021/05/02 00:08:30;;;;;;;0.30;0.13;;;13.50;66.40;;;;;;4999611;28;20061;-82
2021/05/02 00:10:56;;;;;;;0.10;0.10;;;13.50;66.50;;;;;;4993295;28;20049;-82
2021/05/02 00:13:21;;;;;;;1.47;0.10;;;13.50;66.50;;;;;;4990138;28;20368;-82
2021/05/02 00:15:47;;;;;;;0.93;0.20;;;13.50;66.40;;;;;;4990807;28;20028;-82
2021/05/02 00:18:14;;;;;;;1.90;0.30;;;13.50;66.20;;;;;;4989090;28;20032;-82
2021/05/02 00:20:40;;;;;;;0.40;0.10;;;13.50;66.10;;;;;;5008131;28;20030;-82
2021/05/02 00:23:06;;;;;;;0.23;0.10;;;13.50;66.10;;;;;;5003633;28;20026;-81
2021/05/02 00:25:33;;;;;;;0.87;0.30;;;13.50;66.10;;;;;;4993677;28;20029;-82
2021/05/02 00:28:09;;;;;;;0.17;0.10;;;13.50;66.00;;;;;;4992001;28;20084;-82
2021/05/02 00:30:35;;;;;;;0.20;0.10;;;13.50;65.80;;;;;;5002735;28;20042;-82
2021/05/02 00:33:02;;;;;;;0.70;0.10;;;13.40;65.70;;;;;;4990498;28;20030;-82
2021/05/02 00:35:29;;;;;;;1.40;0.20;;;13.40;65.50;;;;;;4987084;28;20038;-82
2021/05/02 00:37:56;;;;;;;0.57;0.00;;;13.30;65.60;;;;;;4989215;28;20034;-82
2021/05/02 00:40:42;;;;;;;1.33;0.10;;;13.40;65.80;;;;;;4989761;28;20055;-82
2021/05/02 00:43:09;;;;;;;0.10;0.10;;;13.50;65.10;;;;;;5000812;28;20026;-82
2021/05/02 00:45:47;;;;;;;0.00;0.00;;;13.70;63.90;;;;;;4985142;28;20029;-82
2021/05/02 00:48:31;;;;;;;0.10;0.00;;;13.60;63.80;;;;;;4988714;28;20026;-82
2021/05/02 00:51:02;;;;;;;0.00;0.00;;;13.40;63.50;;;;;;4990694;28;20030;-82
2021/05/02 00:54:05;;;;;;;1.43;0.10;;;13.20;63.60;;;;;;4989021;28;20399;-82
2021/05/02 00:56:35;;;;;;;0.00;0.00;;;13.20;62.90;;;;;;4984291;28;20082;-83
2021/05/02 00:59:39;;;;;;;0.33;0.00;;;13.10;63.30;;;;;;4981821;28;20097;-82
2021/05/02 01:02:05;;;;;;;0.00;0.00;;;13.30;63.60;;;;;;5000858;28;20109;-82
2021/05/02 01:04:33;;;;;;;0.33;0.10;;;13.30;62.50;;;;;;4986985;28;20109;-82
2021/05/02 01:07:04;;;;;;;0.10;0.10;;;13.40;62.50;;;;;;4991945;28;20034;-81
2021/05/02 01:09:31;;;;;;;0.50;0.10;;;13.40;62.60;;;;;;4989627;28;20030;-81
2021/05/02 01:11:59;;;;;;;0.47;0.20;;;13.40;62.40;;;;;;4982873;28;20042;-82
2021/05/02 01:14:28;;;;;;;1.13;0.20;;;13.20;62.80;;;;;;4990844;28;20117;-81
2021/05/02 01:16:56;;;;;;;0.10;0.10;;;13.10;63.50;;;;;;4990500;28;20030;-82
2021/05/02 01:19:24;;;;;;;0.30;0.10;;;12.90;64.40;;;;;;4986916;28;20030;-82
2021/05/02 01:21:51;;;;;;;0.30;0.10;;;12.80;64.70;;;;;;4987622;28;20481;-82
2021/05/02 01:24:17;;;;;;;0.93;0.10;;;12.80;65.10;;;;;;4989032;28;20117;-82
2021/05/02 01:26:45;;;;;;;0.10;0.10;;;12.80;65.20;;;;;;4986876;28;20030;-82
2021/05/02 01:29:13;;;;;;;0.07;0.07;;;12.80;65.40;;;;;;4987596;28;20428;-82
2021/05/02 01:31:40;;;;;;;0.43;0.10;;;12.70;65.90;;;;;;4977137;28;20059;-83
2021/05/02 01:34:06;;;;;;;0.10;0.00;;;12.70;65.30;;;;;;4982638;28;20077;-82
2021/05/02 01:36:32;;;;;;;0.63;0.27;;;12.60;65.50;;;;;;4990202;28;20434;-82
2021/05/02 01:38:59;;;;;;;0.10;0.10;;;12.60;65.70;;;;;;4988900;28;20045;-82
2021/05/02 01:41:25;;;;;;;0.30;0.10;;;12.60;65.90;;;;;;4990896;28;20030;-82
2021/05/02 01:43:52;;;;;;;0.10;0.00;;;12.60;66.10;;;;;;4992908;28;20034;-81
2021/05/02 01:46:32;;;;;;;0.00;0.00;;;12.60;66.20;;;;;;4991418;28;20092;-82
2021/05/02 01:48:59;;;;;;;0.10;0.10;;;12.60;65.90;;;;;;4991664;28;20061;-82
2021/05/02 01:51:26;;;;;;;0.00;0.00;;;12.60;65.70;;;;;;4994039;28;20061;-82
2021/05/02 01:53:51;;;;;;;1.43;0.10;;;12.50;65.70;;;;;;4993288;28;20023;-82
2021/05/02 01:56:17;;;;;;;0.10;0.10;;;12.50;65.90;;;;;;4990595;28;20046;-82
2021/05/02 01:58:44;;;;;;;0.00;0.00;;;12.40;66.20;;;;;;4987316;28;20038;-82
2021/05/02 02:01:19;;;;;;;0.03;0.03;;;12.40;66.40;;;;;;4989206;28;20097;-82
2021/05/02 02:03:46;;;;;;;0.37;0.00;;;12.30;66.50;;;;;;4993294;28;20026;-82
2021/05/02 02:06:16;;;;;;;0.10;0.10;;;12.30;66.60;;;;;;4993245;28;20665;-82
2021/05/02 02:08:42;;;;;;;1.70;0.10;;;12.30;67.20;;;;;;4992962;28;20030;-81
2021/05/02 02:11:09;;;;;;;0.10;0.10;;;12.30;67.40;;;;;;4992306;28;20039;-81
2021/05/02 02:13:36;;;;;;;0.80;0.10;;;12.30;67.40;;;;;;4994577;28;20439;-81
2021/05/02 02:16:08;;;;;;;0.10;0.10;;;12.30;67.50;;;;;;4990921;28;20585;-81
2021/05/02 02:18:34;;;;;;;0.70;0.10;;;12.20;67.70;;;;;;4992847;28;20030;-81
2021/05/02 02:21:01;;;;;;;3.50;0.20;;;12.30;67.70;;;;;;4990738;28;20097;-81
2021/05/02 02:23:32;;;;;;;1.37;0.10;;;12.30;67.80;;;;;;4993204;28;20030;-81
2021/05/02 02:26:13;;;;;;;0.10;0.00;;;12.30;67.50;;;;;;4991937;28;20077;-81
2021/05/02 02:28:39;;;;;;;0.10;0.00;;;12.30;67.50;;;;;;4995586;28;20026;-81
2021/05/02 02:31:08;;;;;;;1.27;0.40;;;12.20;67.50;;;;;;4991536;28;20050;-81
2021/05/02 02:33:35;;;;;;;1.47;1.00;;;12.10;67.50;;;;;;4990656;28;20031;-81
2021/05/02 02:36:01;;;;;;;2.10;1.30;;;12.10;67.70;;;;;;4990918;28;20113;-81
2021/05/02 02:38:29;;;;;;;1.20;0.50;;;12.20;67.80;;;;;;4991622;28;20108;-81
2021/05/02 02:40:56;;;;;;;15.60;9.93;;;12.20;67.90;;;;;;4987554;28;20033;-81
2021/05/02 02:43:29;;;;;;;1.67;1.00;;;12.20;67.90;;;;;;4993833;28;20033;-81
2021/05/02 02:45:59;;;;;;;8.25;4.55;;;12.10;67.80;;;;;;4986306;28;20042;-81
2021/05/02 02:48:29;;;;;;;6.60;4.30;;;12.10;68.00;;;;;;4992787;28;20032;-81
2021/05/02 02:50:57;;;;;;;11.20;7.70;;;12.20;68.00;;;;;;4990529;28;20049;-81
2021/05/02 02:53:26;;;;;;;1.70;0.83;;;12.20;67.80;;;;;;4991190;28;20586;-81
2021/05/02 02:56:07;;;;;;;2.30;1.30;;;12.20;67.70;;;;;;4984741;28;20023;-81
2021/05/02 02:58:56;;;;;;;0.47;0.23;;;12.20;67.70;;;;;;4990754;28;20038;-81
2021/05/02 03:01:22;;;;;;;0.23;0.20;;;12.20;67.70;;;;;;4977089;28;20069;-81
2021/05/02 03:03:50;;;;;;;0.57;0.30;;;12.20;67.80;;;;;;4973187;28;20078;-81
2021/05/02 03:06:19;;;;;;;0.20;0.20;;;12.20;68.10;;;;;;4992704;28;20025;-81
2021/05/02 03:08:48;;;;;;;1.27;0.20;;;12.20;68.10;;;;;;4991569;28;20030;-81
2021/05/02 03:11:16;;;;;;;0.07;0.00;;;12.10;68.10;;;;;;4992590;28;20026;-81
2021/05/02 03:13:45;;;;;;;0.20;0.10;;;12.10;68.30;;;;;;4991587;28;20479;-80
2021/05/02 03:16:11;;;;;;;0.63;0.10;;;12.10;68.40;;;;;;4990306;28;20030;-81
2021/05/02 03:18:51;;;;;;;0.10;0.10;;;12.10;68.50;;;;;;4992983;28;20034;-82
2021/05/02 03:21:21;;;;;;;0.10;0.00;;;12.10;68.90;;;;;;4986612;28;20030;-81
2021/05/02 03:27:17;;;;;;;0.10;0.10;;;12.00;68.70;;;;;;4991919;28;20044;-80
2021/05/02 03:29:47;;;;;;;0.70;0.10;;;11.90;68.70;;;;;;4991723;28;20394;-81
2021/05/02 03:32:27;;;;;;;0.20;0.00;;;11.90;68.90;;;;;;4987284;28;20117;-80
2021/05/02 03:34:56;;;;;;;4.60;1.80;;;11.90;69.10;;;;;;4989679;28;20026;-81
2021/05/02 03:37:26;;;;;;;8.23;3.23;;;11.90;69.30;;;;;;4990848;28;20077;-81
2021/05/02 03:39:52;;;;;;;3.13;0.80;;;11.80;69.20;;;;;;4992607;28;20080;-81
2021/05/02 03:42:18;;;;;;;0.33;0.20;;;11.90;69.00;;;;;;4991248;28;20034;-81
2021/05/02 03:44:45;;;;;;;0.30;0.00;;;11.80;68.90;;;;;;4991294;28;20034;-81
2021/05/02 03:47:11;;;;;;;0.83;0.10;;;11.80;69.00;;;;;;4971739;28;20078;-81
2021/05/02 03:49:38;;;;;;;0.83;0.00;;;11.80;69.30;;;;;;4991577;28;20491;-81
2021/05/02 03:52:04;;;;;;;2.10;0.10;;;11.70;69.40;;;;;;4985091;28;20038;-80
2021/05/02 03:54:29;;;;;;;0.83;0.20;;;11.70;69.40;;;;;;4986448;28;20508;-81
2021/05/02 03:56:56;;;;;;;0.63;0.10;;;11.70;69.40;;;;;;4977927;28;20034;-81
2021/05/02 03:59:28;;;;;;;0.73;0.10;;;11.60;69.40;;;;;;4985470;28;20472;-81
2021/05/02 04:01:57;;;;;;;0.87;0.10;;;11.60;69.70;;;;;;5004049;28;20050;-81
2021/05/02 04:04:27;;;;;;;0.37;0.10;;;11.60;69.60;;;;;;4988257;28;20026;-81
2021/05/02 04:07:03;;;;;;;0.40;0.17;;;11.60;69.70;;;;;;4992315;28;20030;-81
2021/05/02 04:09:29;;;;;;;0.20;0.10;;;11.60;69.80;;;;;;4987359;28;20088;-81
2021/05/02 04:11:55;;;;;;;0.30;0.20;;;11.60;69.70;;;;;;4987297;28;20038;-81
2021/05/02 04:14:21;;;;;;;0.30;0.10;;;11.60;69.50;;;;;;4990065;28;20467;-81
2021/05/02 04:17:04;;;;;;;0.10;0.10;;;11.60;69.10;;;;;;4984577;28;20046;-81
2021/05/02 04:19:31;;;;;;;0.47;0.10;;;11.50;68.90;;;;;;4988444;28;20499;-80
2021/05/02 04:21:57;;;;;;;0.60;0.00;;;11.50;68.50;;;;;;4988494;28;20052;-81
2021/05/02 04:24:24;;;;;;;0.23;0.00;;;11.50;68.20;;;;;;4991623;28;20048;-81
2021/05/02 04:26:53;;;;;;;0.00;0.00;;;11.50;67.90;;;;;;4991302;28;20030;-81
2021/05/02 04:29:23;;;;;;;0.00;0.00;;;11.50;67.90;;;;;;4985744;28;20033;-81
2021/05/02 04:31:53;;;;;;;0.00;0.00;;;11.40;67.80;;;;;;5011820;28;20026;-81
2021/05/02 04:34:19;;;;;;;2.40;0.00;;;11.50;67.90;;;;;;4993469;28;20022;-81
2021/05/02 04:36:46;;;;;;;0.10;0.00;;;11.50;67.60;;;;;;4994405;28;20041;-81
2021/05/02 04:39:12;;;;;;;0.10;0.00;;;11.50;67.60;;;;;;4992754;28;20168;-80
2021/05/02 04:41:38;;;;;;;0.83;0.53;;;11.50;67.70;;;;;;4989289;28;20026;-81
2021/05/02 04:44:06;;;;;;;0.27;0.20;;;11.50;67.80;;;;;;4990057;28;20022;-81
2021/05/02 04:46:31;;;;;;;0.20;0.10;;;11.60;68.00;;;;;;4970095;28;20030;-81
2021/05/02 04:48:57;;;;;;;1.60;0.20;;;11.60;68.20;;;;;;4979745;28;20041;-81
2021/05/02 04:51:26;;;;;;;2.10;0.30;;;11.60;68.30;;;;;;4994236;28;20030;-81
2021/05/02 04:53:52;;;;;;;0.27;0.10;;;11.50;68.20;;;;;;4994017;28;20030;-81
2021/05/02 04:56:18;;;;;;;0.37;0.27;;;11.50;69.10;;;;;;4993976;28;20040;-81
2021/05/02 04:58:43;;;;;;;1.13;0.20;;;11.50;68.70;;;;;;4991551;28;20030;-81
2021/05/02 05:01:13;;;;;;;0.93;0.40;;;11.50;69.10;;;;;;4987193;28;20029;-81
2021/05/02 05:03:45;;;;;;;0.50;0.17;;;11.50;69.80;;;;;;5019536;28;20051;-81
2021/05/02 05:06:11;;;;;;;0.20;0.20;;;11.50;69.30;;;;;;4993292;28;20025;-81
2021/05/02 05:08:38;;;;;;;0.20;0.20;;;11.60;69.20;;;;;;4993040;28;20062;-81
2021/05/02 05:11:04;;;;;;;2.43;0.30;;;11.60;68.90;;;;;;5010674;28;20029;-81
2021/05/02 05:13:30;;;;;;;2.63;0.63;;;11.70;68.90;;;;;;4993797;28;20026;-81
2021/05/02 05:15:56;;;;;;;0.60;0.50;;;11.70;68.90;;;;;;4997192;28;20490;-81
2021/05/02 05:18:22;;;;;;;1.27;0.30;;;11.70;69.00;;;;;;4998119;28;20033;-81
2021/05/02 05:20:48;;;;;;;1.00;0.60;;;11.80;69.10;;;;;;4994123;28;20038;-81
2021/05/02 05:23:16;;;;;;;1.70;0.40;;;11.80;68.90;;;;;;5013622;28;20014;-81
2021/05/02 05:25:41;;;;;;;1.23;0.50;;;11.80;69.10;;;;;;4999385;28;20047;-81
2021/05/02 05:28:07;;;;;;;0.80;0.40;;;11.80;69.30;;;;;;4997031;28;20030;-81
2021/05/02 05:30:33;;;;;;;1.03;0.50;;;11.80;69.90;;;;;;4987902;28;20100;-80
2021/05/02 05:33:09;;;;;;;0.50;0.30;;;11.80;69.30;;;;;;4990313;28;20097;-81
2021/05/02 05:35:36;;;;;;;0.57;0.20;;;11.90;69.30;;;;;;4991056;28;20109;-81
2021/05/02 05:38:03;;;;;;;2.23;0.10;;;11.90;69.10;;;;;;4999033;28;20029;-81
2021/05/02 05:40:30;;;;;;;0.53;0.20;;;11.90;69.00;;;;;;5013440;28;20053;-81
2021/05/02 05:42:56;;;;;;;1.90;0.60;;;11.80;69.00;;;;;;5004815;28;20018;-81
2021/05/02 05:45:22;;;;;;;1.80;0.90;;;11.90;69.10;;;;;;4993291;28;20031;-81
2021/05/02 05:47:52;;;;;;;4.23;1.40;;;11.90;69.00;;;;;;4993009;28;20509;-81
2021/05/02 05:50:20;;;;;;;2.53;1.10;;;11.90;69.40;;;;;;4982902;28;20049;-81
2021/05/02 05:52:47;;;;;;;1.60;0.70;;;11.90;69.50;;;;;;4999319;28;20025;-82
2021/05/02 05:55:14;;;;;;;2.47;0.70;;;11.90;69.20;;;;;;5002050;28;20087;-81
2021/05/02 05:57:41;;;;;;;2.17;1.00;;;11.90;69.00;;;;;;4996529;28;20062;-80
2021/05/02 06:00:10;;;;;;;1.53;0.60;;;11.90;68.90;;;;;;5013310;28;20025;-82
2021/05/02 06:02:36;;;;;;;1.60;0.70;;;11.90;68.90;;;;;;5023289;28;20029;-81
2021/05/02 06:05:04;;;;;;;2.00;0.60;;;11.90;69.00;;;;;;4999987;28;20481;-81
2021/05/02 06:07:30;;;;;;;1.47;0.70;;;12.00;68.90;;;;;;4985151;28;20022;-80
2021/05/02 06:09:56;;;;;;;1.50;0.80;;;12.10;68.80;;;;;;4995155;28;20018;-81
2021/05/02 06:12:22;;;;;;;2.03;0.93;;;12.10;68.70;;;;;;4990300;28;20033;-81
2021/05/02 06:14:48;;;;;;;1.30;0.87;;;12.10;68.50;;;;;;4994558;28;20026;-81
2021/05/02 06:17:14;;;;;;;1.70;0.83;;;12.20;68.20;;;;;;5013952;28;20811;-81
2021/05/02 06:19:40;;;;;;;0.70;0.50;;;12.10;68.70;;;;;;5012332;28;20414;-81
2021/05/02 06:22:06;;;;;;;1.90;0.67;;;12.10;68.10;;;;;;5006514;28;20033;-80
2021/05/02 06:24:32;;;;;;;1.37;0.60;;;12.20;68.00;;;;;;4994087;28;20025;-81
2021/05/02 06:26:58;;;;;;;1.60;0.80;;;12.20;68.00;;;;;;5013057;28;20033;-81
2021/05/02 06:29:24;;;;;;;0.90;0.47;;;12.20;67.70;;;;;;4990772;28;20651;-81
2021/05/02 06:31:50;;;;;;;1.33;0.80;;;12.20;67.70;;;;;;4989377;28;20039;-81
2021/05/02 06:34:15;;;;;;;4.43;0.40;;;12.20;67.70;;;;;;4992737;28;20054;-81
2021/05/02 06:36:41;;;;;;;0.47;0.20;;;12.20;67.60;;;;;;4996372;28;20111;-81
2021/05/02 06:39:08;;;;;;;4.57;0.20;;;12.20;67.50;;;;;;4993318;28;20054;-81
2021/05/02 06:41:37;;;;;;;0.70;0.40;;;12.20;67.20;;;;;;5007719;28;20033;-81
2021/05/02 06:44:04;;;;;;;0.53;0.20;;;12.20;67.10;;;;;;4993923;28;20034;-81
2021/05/02 06:46:30;;;;;;;0.83;0.40;;;12.30;66.80;;;;;;4978235;28;20459;-81
2021/05/02 06:48:58;;;;;;;0.33;0.30;;;12.30;66.60;;;;;;5010110;28;20042;-82
2021/05/02 06:51:25;;;;;;;1.40;0.50;;;12.30;66.70;;;;;;5011335;28;20049;-82
2021/05/02 06:53:50;;;;;;;1.07;0.40;;;12.40;66.50;;;;;;4993667;28;20076;-82
2021/05/02 06:56:16;;;;;;;0.90;0.50;;;12.40;66.30;;;;;;4994228;28;20045;-82
2021/05/02 06:58:42;;;;;;;2.40;0.60;;;12.40;66.30;;;;;;5008754;28;20037;-82
2021/05/02 07:01:08;;;;;;;1.43;0.50;;;12.50;66.20;;;;;;5010374;28;20030;-82
2021/05/02 07:03:34;;;;;;;0.50;0.30;;;12.40;65.70;;;;;;4990815;28;20033;-82
2021/05/02 07:06:00;;;;;;;0.80;0.40;;;12.30;65.40;;;;;;4998877;28;20026;-82
2021/05/02 07:08:26;;;;;;;1.27;0.33;;;12.30;65.80;;;;;;5002880;28;20029;-82
2021/05/02 07:10:52;;;;;;;2.33;0.30;;;12.30;65.70;;;;;;4998560;28;20033;-82
2021/05/02 07:13:18;;;;;;;2.23;0.33;;;12.30;65.50;;;;;;4994906;28;20038;-81
2021/05/02 07:15:44;;;;;;;0.40;0.20;;;12.40;65.70;;;;;;4986065;28;20029;-82
2021/05/02 07:18:09;;;;;;;2.87;0.30;;;12.30;65.00;;;;;;4995134;28;20041;-82
2021/05/02 07:20:35;;;;;;;0.97;0.40;;;12.40;64.50;;;;;;4995658;28;20026;-82
2021/05/02 07:23:01;;;;;;;1.93;0.30;;;12.40;64.60;;;;;;4996955;28;20057;-82
2021/05/02 07:25:27;;;;;;;1.93;0.30;;;12.40;64.40;;;;;;5015392;28;20038;-82
2021/05/02 07:27:53;;;;;;;2.40;0.50;;;12.40;63.80;;;;;;4990465;28;20394;-82
2021/05/02 07:30:21;;;;;;;1.80;0.30;;;12.40;63.80;;;;;;4994892;28;20056;-82
2021/05/02 07:32:46;;;;;;;1.33;0.70;;;12.50;63.90;;;;;;4992041;28;20116;-82
2021/05/02 07:35:12;;;;;;;0.97;0.53;;;12.50;63.80;;;;;;4993892;28;20112;-82
2021/05/02 07:37:39;;;;;;;1.33;0.20;;;12.60;63.60;;;;;;5012740;28;20069;-82
2021/05/02 07:40:06;;;;;;;0.50;0.30;;;12.60;63.10;;;;;;5010316;28;22220;-82
2021/05/02 07:42:32;;;;;;;0.40;0.20;;;12.60;63.00;;;;;;4986563;28;20102;-82
2021/05/02 07:44:57;;;;;;;0.37;0.20;;;12.50;63.20;;;;;;4993182;28;20160;-82
2021/05/02 07:47:23;;;;;;;0.73;0.30;;;12.60;63.40;;;;;;4995504;28;20026;-82
2021/05/02 07:49:49;;;;;;;1.50;0.50;;;12.60;63.50;;;;;;5011085;28;20029;-82
2021/05/02 07:52:15;;;;;;;0.70;0.47;;;12.60;63.30;;;;;;5012180;28;20033;-81
2021/05/02 07:54:42;;;;;;;0.37;0.30;;;12.70;63.20;;;;;;4994954;28;20112;-81
2021/05/02 07:57:08;;;;;;;0.53;0.30;;;12.70;62.70;;;;;;5016304;28;20068;-82
2021/05/02 07:59:34;;;;;;;0.40;0.30;;;12.70;62.50;;;;;;4998984;28;20041;-81
2021/05/02 08:01:59;;;;;;;1.10;0.57;;;12.70;62.10;;;;;;4988132;28;20084;-81
2021/05/02 08:04:25;;;;;;;1.13;0.63;;;12.70;61.70;;;;;;4989845;28;20031;-81
2021/05/02 08:06:51;;;;;;;1.67;0.70;;;12.80;61.50;;;;;;5009570;28;20081;-82
2021/05/02 08:09:16;;;;;;;2.20;0.80;;;12.80;61.60;;;;;;4987781;28;20030;-82
2021/05/02 08:11:42;;;;;;;1.50;0.90;;;12.90;61.90;;;;;;4995636;28;20034;-81
2021/05/02 08:14:08;;;;;;;1.37;1.03;;;13.00;61.30;;;;;;4993431;28;20056;-81
2021/05/02 08:16:34;;;;;;;0.80;0.80;;;13.00;60.90;;;;;;4994869;28;20034;-82
2021/05/02 08:19:03;;;;;;;0.90;0.70;;;13.00;60.30;;;;;;4993494;28;20033;-81
2021/05/02 08:21:29;;;;;;;1.13;0.60;;;13.00;59.80;;;;;;4992979;28;20030;-81
2021/05/02 08:23:55;;;;;;;2.43;0.30;;;13.10;59.50;;;;;;4977535;28;20441;-82
2021/05/02 08:26:21;;;;;;;0.40;0.10;;;13.20;59.10;;;;;;4993813;28;20033;-81
2021/05/02 08:28:47;;;;;;;0.47;0.30;;;13.20;59.00;;;;;;4994431;28;20030;-81
2021/05/02 08:31:13;;;;;;;0.80;0.40;;;13.30;58.70;;;;;;4993413;28;20048;-81
2021/05/02 08:33:39;;;;;;;1.40;0.10;;;13.30;58.30;;;;;;5005961;28;20031;-81
2021/05/02 08:36:06;;;;;;;1.90;0.30;;;13.30;57.60;;;;;;4992150;28;20104;-81
2021/05/02 08:38:33;;;;;;;2.20;0.20;;;13.40;57.00;;;;;;4995411;28;20034;-81
2021/05/02 08:41:00;;;;;;;2.10;0.47;;;13.50;56.40;;;;;;4994588;28;20037;-81
2021/05/02 08:43:27;;;;;;;1.20;0.30;;;13.50;55.80;;;;;;4991408;28;20030;-81
2021/05/02 08:45:53;;;;;;;0.80;0.30;;;13.60;55.10;;;;;;4991786;28;20034;-81
2021/05/02 08:48:22;;;;;;;0.47;0.20;;;13.60;54.50;;;;;;5011556;28;20037;-82
2021/05/02 08:50:52;;;;;;;0.67;0.40;;;13.60;54.50;;;;;;5011239;28;21951;-82
2021/05/02 08:53:18;;;;;;;0.60;0.30;;;13.80;54.30;;;;;;4994904;28;20386;-81
2021/05/02 08:55:44;;;;;;;0.20;0.13;;;13.80;53.90;;;;;;4995207;28;20022;-81
2021/05/02 08:58:22;;;;;;;1.23;0.40;;;13.80;53.80;;;;;;4989774;28;20442;-81
2021/05/02 09:00:48;;;;;;;2.10;0.30;;;14.00;53.70;;;;;;4994211;28;20033;-81
2021/05/02 09:03:15;;;;;;;0.50;0.20;;;14.10;53.80;;;;;;4994554;28;20045;-81
2021/05/02 09:05:50;;;;;;;0.23;0.20;;;14.20;53.40;;;;;;5012558;28;20484;-81
2021/05/02 09:08:34;;;;;;;0.63;0.20;;;14.30;52.80;;;;;;4985472;28;20052;-81
2021/05/02 09:11:00;;;;;;;0.77;0.23;;;14.40;52.60;;;;;;4992089;28;20077;-82
2021/05/02 09:13:30;;;;;;;0.20;0.20;;;14.40;52.50;;;;;;4993412;28;20510;-82
2021/05/02 09:16:04;;;;;;;2.10;0.30;;;14.40;52.10;;;;;;4987189;28;20030;-81
2021/05/02 09:18:40;;;;;;;0.37;0.30;;;14.50;52.00;;;;;;5011002;28;20030;-81
2021/05/02 09:21:08;;;;;;;1.00;0.80;;;14.50;51.90;;;;;;5006461;28;20037;-81
2021/05/02 09:23:42;;;;;;;4.27;3.00;;;14.50;51.10;;;;;;4985078;28;20041;-81
2021/05/02 09:26:36;;;;;;;1.93;1.07;;;14.40;50.90;;;;;;5011053;28;20037;-81
2021/05/02 09:29:06;;;;;;;0.57;0.30;;;14.50;50.90;;;;;;4991496;28;20029;-82
2021/05/02 09:31:41;;;;;;;0.53;0.40;;;14.50;50.80;;;;;;4998821;28;20256;-82
2021/05/02 09:34:18;;;;;;;1.13;0.40;;;14.60;50.10;;;;;;5005370;28;20433;-82
2021/05/02 09:36:50;;;;;;;0.37;0.30;;;14.60;49.90;;;;;;5011627;28;20077;-82
2021/05/02 09:39:48;;;;;;;0.40;0.30;;;14.50;49.70;;;;;;4991041;28;20079;-82
2021/05/02 09:42:18;;;;;;;2.30;1.13;;;14.50;49.50;;;;;;4985078;28;20479;-82
2021/05/02 09:44:55;;;;;;;0.60;0.43;;;14.60;49.70;;;;;;4985495;28;20022;-82
2021/05/02 09:47:32;;;;;;;1.17;0.33;;;14.70;49.00;;;;;;4993058;28;20389;-81
2021/05/02 09:50:18;;;;;;;0.57;0.30;;;14.60;48.30;;;;;;4994207;28;20133;-82
2021/05/02 09:53:01;;;;;;;0.50;0.30;;;14.70;48.90;;;;;;4992022;28;20505;-82
2021/05/02 09:55:44;;;;;;;0.40;0.30;;;14.70;48.30;;;;;;4994679;28;20040;-82
2021/05/02 09:58:18;;;;;;;0.20;0.20;;;14.70;48.10;;;;;;4993618;28;20076;-82
2021/05/02 10:00:45;;;;;;;0.40;0.20;;;14.70;47.90;;;;;;4993960;28;20034;-82
2021/05/02 10:03:13;;;;;;;0.23;0.20;;;14.60;48.50;;;;;;4994905;28;20030;-82
2021/05/02 10:05:57;;;;;;;1.27;0.20;;;14.60;47.80;;;;;;5009380;28;20034;-81
2021/05/02 10:08:26;;;;;;;0.30;0.20;;;14.50;47.90;;;;;;5015955;28;20034;-82
2021/05/02 10:10:53;;;;;;;0.20;0.13;;;14.60;47.60;;;;;;4998052;28;20441;-81
2021/05/02 10:13:19;;;;;;;0.40;0.10;;;14.50;46.80;;;;;;4997961;28;20080;-81
2021/05/02 10:15:45;;;;;;;0.10;0.10;;;14.40;47.10;;;;;;4994390;28;20490;-82
2021/05/02 10:18:11;;;;;;;0.83;0.33;;;14.40;47.10;;;;;;5015569;28;20029;-81
2021/05/02 10:20:36;;;;;;;0.70;0.40;;;14.50;46.50;;;;;;4995118;28;20041;-81
2021/05/02 10:23:04;;;;;;;0.63;0.30;;;14.40;46.30;;;;;;4990273;28;20112;-82
2021/05/02 10:25:30;;;;;;;0.20;0.20;;;14.40;46.60;;;;;;4993977;28;20033;-81
2021/05/02 10:27:56;;;;;;;0.70;0.30;;;14.30;46.60;;;;;;5006022;28;20030;-81
2021/05/02 10:30:30;;;;;;;0.20;0.10;;;14.40;46.50;;;;;;4991953;28;20058;-81
2021/05/02 10:33:10;;;;;;;0.40;0.30;;;14.40;46.50;;;;;;4986705;28;20026;-81
2021/05/02 10:35:55;;;;;;;2.00;0.90;;;14.40;47.00;;;;;;4986465;28;20121;-79
2021/05/02 10:38:53;;;;;;;2.03;1.13;;;14.50;46.90;;;;;;4979492;28;20112;-81
2021/05/02 10:41:33;;;;;;;0.50;0.30;;;14.50;46.90;;;;;;4985148;28;20037;-82
2021/05/02 10:44:19;;;;;;;0.40;0.33;;;14.60;47.30;;;;;;4991447;28;20109;-82
2021/05/02 10:46:50;;;;;;;2.43;0.40;;;14.70;46.70;;;;;;4974958;28;20529;-81
2021/05/02 10:49:19;;;;;;;0.45;0.40;;;14.50;47.00;;;;;;4992046;28;20065;-82
2021/05/02 10:51:53;;;;;;;0.47;0.33;;;14.50;47.40;;;;;;5001995;28;20039;-82
2021/05/02 10:54:23;;;;;;;0.70;0.40;;;14.60;48.00;;;;;;4988641;28;20036;-82
2021/05/02 10:56:52;;;;;;;0.97;0.60;;;14.80;47.90;;;;;;4990767;28;20410;-82
2021/05/02 10:59:20;;;;;;;2.70;0.60;;;14.90;47.70;;;;;;4986470;28;20093;-82
2021/05/02 11:01:47;;;;;;;0.90;0.60;;;14.70;48.10;;;;;;4988042;28;20029;-82
2021/05/02 11:04:13;;;;;;;0.73;0.47;;;14.60;48.20;;;;;;4992189;28;20415;-82
2021/05/02 11:06:38;;;;;;;0.20;0.20;;;14.70;48.60;;;;;;4992252;28;20034;-81
2021/05/02 11:09:17;;;;;;;0.43;0.17;;;14.70;48.20;;;;;;4993101;28;20030;-82
2021/05/02 11:11:50;;;;;;;0.10;0.10;;;14.60;47.70;;;;;;4990494;28;20034;-81
2021/05/02 11:14:17;;;;;;;;;;;14.50;48.20;;;;;;5007689;28;20041;-81
2021/05/02 11:16:50;;;;;;;0.40;0.30;;;14.60;48.50;;;;;;4994080;28;19909;-82
2021/05/02 11:19:19;;;;;;;;;;;14.60;47.60;;;;;;4993957;28;20038;-82
2021/05/02 11:21:49;;;;;;;1.63;0.70;;;14.70;47.70;;;;;;4994049;28;19909;-81
2021/05/02 11:24:16;;;;;;;0.47;0.30;;;14.70;47.80;;;;;;4991481;28;20018;-82
2021/05/02 11:27:00;;;;;;;0.53;0.27;;;14.80;48.00;;;;;;4992155;28;20027;-81
2021/05/02 11:29:51;;;;;;;2.80;0.30;;;15.00;48.00;;;;;;4991219;28;20033;-82
2021/05/02 11:32:29;;;;;;;0.77;0.40;;;15.10;47.40;;;;;;4994325;28;20026;-81
2021/05/02 11:34:56;;;;;;;0.60;0.30;;;15.00;46.80;;;;;;5010831;28;20466;-82
2021/05/02 11:37:49;;;;;;;0.13;0.13;;;14.90;47.10;;;;;;4994070;28;20030;-81
2021/05/02 11:40:21;;;;;;;2.70;1.30;;;14.80;47.10;;;;;;4994791;28;20398;-81
2021/05/02 11:43:17;;;;;;;11.40;5.50;;;14.90;47.30;;;;;;4994749;28;20032;-81
2021/05/02 11:45:53;;;;;;;2.10;1.20;;;15.00;47.40;;;;;;4978429;28;20026;-81
2021/05/02 11:48:26;;;;;;;6.30;3.13;;;15.10;47.20;;;;;;4991481;28;20125;-82
2021/05/02 11:51:01;;;;;;;8.67;3.17;;;15.10;47.10;;;;;;5001342;28;20022;-82
2021/05/02 11:53:50;;;;;;;6.30;2.90;;;15.10;47.40;;;;;;4991245;28;20471;-81
2021/05/02 11:56:29;;;;;;;5.73;3.13;;;15.30;47.00;;;;;;4997513;28;20125;-82
2021/05/02 11:59:07;;;;;;;7.47;3.70;;;15.30;47.20;;;;;;4994410;28;20030;-82
2021/05/02 12:01:34;;;;;;;3.60;2.10;;;15.20;47.30;;;;;;5011228;28;20026;-82
2021/05/02 12:04:13;;;;;;;1.40;0.70;;;15.00;47.70;;;;;;4991446;28;20485;-82
2021/05/02 12:06:39;;;;;;;0.60;0.60;;;15.20;48.10;;;;;;4994304;28;20116;-82
2021/05/02 12:09:20;;;;;;;0.80;0.80;;;15.30;47.90;;;;;;5011022;28;20109;-81
2021/05/02 12:11:53;;;;;;;1.53;1.33;;;15.30;47.50;;;;;;4984728;28;20041;-82
2021/05/02 12:14:22;;;;;;;1.40;1.23;;;15.30;47.30;;;;;;4993162;28;20065;-82
2021/05/02 12:16:55;;;;;;;1.33;0.70;;;15.40;47.10;;;;;;4992870;28;20040;-82
2021/05/02 12:19:21;;;;;;;2.78;1.10;;;15.40;47.30;;;;;;5010311;28;20030;-82
2021/05/02 12:21:47;;;;;;;1.90;0.53;;;15.50;47.70;;;;;;4992208;28;20510;-82
2021/05/02 12:24:17;;;;;;;0.43;0.30;;;15.70;47.20;;;;;;4991093;28;20034;-82
2021/05/02 12:26:52;;;;;;;0.80;0.50;;;15.80;47.10;;;;;;4994740;28;20036;-82
2021/05/02 12:29:26;;;;;;;0.75;0.60;;;15.90;46.90;;;;;;5010698;28;20060;-82
2021/05/02 12:31:56;;;;;;;0.45;0.30;;;16.00;46.80;;;;;;4995592;28;20104;-82
2021/05/02 12:34:25;;;;;;;0.95;0.40;;;16.00;46.40;;;;;;4995304;28;20032;-82
2021/05/02 12:36:55;;;;;;;0.60;0.40;;;15.90;46.50;;;;;;4991380;28;20030;-82
2021/05/02 12:39:29;;;;;;;1.13;0.50;;;16.00;46.50;;;;;;4995588;28;20050;-82
2021/05/02 12:41:55;;;;;;;0.47;0.30;;;15.90;46.90;;;;;;4995669;28;20025;-82
2021/05/02 12:44:23;;;;;;;0.50;0.40;;;15.80;46.60;;;;;;4995366;28;20498;-82
2021/05/02 12:46:59;;;;;;;0.95;0.60;;;15.80;46.50;;;;;;5013184;28;20026;-82
2021/05/02 12:49:31;;;;;;;1.83;0.90;;;15.80;46.40;;;;;;4995614;28;20025;-82
2021/05/02 12:52:11;;;;;;;0.83;0.50;;;15.70;46.30;;;;;;4995340;28;20402;-82
2021/05/02 12:54:37;;;;;;;1.35;0.85;;;15.60;46.00;;;;;;5013012;28;20466;-82
2021/05/02 12:57:10;;;;;;;0.50;0.40;;;15.60;46.80;;;;;;5012948;28;20026;-83
2021/05/02 12:59:40;;;;;;;;;;;15.70;46.20;;;;;;4995560;28;20030;-82
2021/05/02 13:02:11;;;;;;;0.60;0.60;;;15.70;46.50;;;;;;5012853;28;20357;-82
2021/05/02 13:04:44;;;;;;;0.57;0.50;;;15.70;46.30;;;;;;4995447;28;20540;-82